Terminal Aerodrome Forecast
Issued by NWS

Home | Current Version | Previous Version | Text Only | Print | Product List | Glossary On
Versions: 1 2 3 4 5 6 7 8 9 10 11 12 13 14
094
FTUS43 KIWX 171127
TAFSBN
TAF
KSBN 171127Z 1712/1812 11006KT 5SM BR OVC200
     FM171400 18007KT P6SM OVC200
     FM180000 21006KT P6SM OVC040
     FM180400 22006KT P6SM SCT010 OVC025
     FM180600 22006KT 3SM -DZ BR OVC008=

USA.gov is the U.S. government's official web portal to all federal, state and local government web resources and services.